createdAt,value
2023-04-17T00:00:17.876Z,87.92
2023-04-17T00:01:20.681Z,87.32
2023-04-17T00:02:23.873Z,87.28
2023-04-17T00:03:59.928Z,87.21
2023-04-17T00:05:04.486Z,87.16
2023-04-17T00:06:07.716Z,87.17
2023-04-17T00:07:42.575Z,87.14
2023-04-17T00:08:45.415Z,87.22
2023-04-17T00:09:48.420Z,87.51
2023-04-17T00:11:25.864Z,87.51
2023-04-17T00:12:28.926Z,87.51
2023-04-17T00:13:31.860Z,87.43
2023-04-17T00:15:06.628Z,87.37
2023-04-17T00:16:09.533Z,87.42
2023-04-17T00:17:12.721Z,87.44
2023-04-17T00:18:47.481Z,87.43
2023-04-17T00:19:50.743Z,87.47
2023-04-17T00:20:53.594Z,87.33
2023-04-17T00:22:28.024Z,87.44
2023-04-17T00:23:30.846Z,87.51
2023-04-17T00:24:33.633Z,87.45
2023-04-17T00:26:08.386Z,87.58
2023-04-17T00:27:11.382Z,87.62
2023-04-17T00:28:14.222Z,87.62
2023-04-17T00:29:48.873Z,87.56
2023-04-17T00:30:51.862Z,87.55
2023-04-17T00:31:54.922Z,87.58
2023-04-17T00:33:29.971Z,87.42
2023-04-17T00:34:32.927Z,87.58
2023-04-17T00:35:36.502Z,87.51
2023-04-17T00:37:10.919Z,87.42
2023-04-17T00:38:13.656Z,87.36
2023-04-17T00:39:16.946Z,87.31
2023-04-17T00:40:51.693Z,87.29
2023-04-17T00:41:54.582Z,87.30
2023-04-17T00:42:57.721Z,87.44
2023-04-17T00:44:32.403Z,87.45
2023-04-17T00:45:35.554Z,87.46
2023-04-17T00:46:38.817Z,87.46
2023-04-17T00:48:13.619Z,87.82
2023-04-17T00:49:16.820Z,87.86
2023-04-17T00:50:19.565Z,88.01
2023-04-17T00:51:54.109Z,88.18
2023-04-17T00:52:56.832Z,88.14
2023-04-17T00:53:59.657Z,88.27
2023-04-17T00:55:34.209Z,88.17
2023-04-17T00:56:37.059Z,88.26
2023-04-17T00:57:39.930Z,88.27
2023-04-17T00:59:14.581Z,88.31
2023-04-17T01:00:16.852Z,88.31
2023-04-17T01:01:20.045Z,88.31
2023-04-17T01:02:23.518Z,88.36
2023-04-17T01:04:00.292Z,88.36
2023-04-17T01:05:04.482Z,88.58
2023-04-17T01:06:07.383Z,88.65
2023-04-17T01:07:41.991Z,88.70
2023-04-17T01:08:44.654Z,88.85
2023-04-17T01:09:47.713Z,88.80
2023-04-17T01:11:22.198Z,88.62
2023-04-17T01:12:25.149Z,88.74
2023-04-17T01:13:27.915Z,88.73
2023-04-17T01:15:02.533Z,88.75
2023-04-17T01:16:05.453Z,88.71
2023-04-17T01:17:08.659Z,88.70
2023-04-17T01:18:43.704Z,88.65
2023-04-17T01:19:46.742Z,88.60
2023-04-17T01:20:49.806Z,88.62
2023-04-17T01:22:24.387Z,88.54
2023-04-17T01:23:27.277Z,88.50
2023-04-17T01:24:30.151Z,88.34
2023-04-17T01:26:04.698Z,88.31
2023-04-17T01:27:07.475Z,88.32
2023-04-17T01:28:10.357Z,88.32
2023-04-17T01:29:44.802Z,88.35
2023-04-17T01:30:47.915Z,88.30
2023-04-17T01:31:51.475Z,88.25
2023-04-17T01:33:26.442Z,88.24
2023-04-17T01:34:29.258Z,88.31
2023-04-17T01:35:35.306Z,88.32
2023-04-17T01:37:10.001Z,88.38
2023-04-17T01:38:12.874Z,88.47
2023-04-17T01:39:16.090Z,88.51
2023-04-17T01:40:50.488Z,88.63
2023-04-17T01:41:53.216Z,88.53
2023-04-17T01:42:56.147Z,88.49
2023-04-17T01:44:30.743Z,88.63
2023-04-17T01:45:33.546Z,88.76
2023-04-17T01:46:36.690Z,88.76
2023-04-17T01:48:11.577Z,88.71
2023-04-17T01:49:14.767Z,88.75
2023-04-17T01:50:17.677Z,88.73
2023-04-17T01:51:52.430Z,88.90
2023-04-17T01:52:55.356Z,88.90
2023-04-17T01:53:58.249Z,88.84
2023-04-17T01:55:32.973Z,88.69
2023-04-17T01:56:35.894Z,88.75
2023-04-17T01:57:38.678Z,88.81
2023-04-17T01:59:13.620Z,88.89
2023-04-17T02:00:18.110Z,88.81
2023-04-17T02:01:21.109Z,88.76
2023-04-17T02:02:24.470Z,88.83
2023-04-17T02:04:00.539Z,88.93
2023-04-17T02:05:04.473Z,88.88
2023-04-17T02:06:07.377Z,88.90
2023-04-17T02:07:42.048Z,89.05
2023-04-17T02:08:44.888Z,89.04
2023-04-17T02:09:47.916Z,89.17
2023-04-17T02:11:22.933Z,89.29
2023-04-17T02:12:25.787Z,89.19
2023-04-17T02:13:28.551Z,89.32
2023-04-17T02:15:03.046Z,89.32
2023-04-17T02:16:05.989Z,89.33
2023-04-17T02:17:09.211Z,89.31
2023-04-17T02:18:43.898Z,89.31
2023-04-17T02:19:46.673Z,89.40
2023-04-17T02:20:49.643Z,89.40
2023-04-17T02:22:24.390Z,89.50
2023-04-17T02:23:27.340Z,89.47
2023-04-17T02:24:30.298Z,89.41
2023-04-17T02:26:05.076Z,89.54
2023-04-17T02:27:08.159Z,89.57
2023-04-17T02:28:11.013Z,89.48
2023-04-17T02:29:45.472Z,89.49
2023-04-17T02:30:48.275Z,89.47
2023-04-17T02:31:51.467Z,89.62
2023-04-17T02:33:26.110Z,89.62
2023-04-17T02:34:28.991Z,89.61
2023-04-17T02:35:31.834Z,89.68
2023-04-17T02:37:06.393Z,89.84
2023-04-17T02:38:09.079Z,89.86
2023-04-17T02:39:12.264Z,89.94
2023-04-17T02:40:47.254Z,89.89
2023-04-17T02:41:50.229Z,89.87
2023-04-17T02:42:53.180Z,89.92
2023-04-17T02:44:28.092Z,89.95
2023-04-17T02:45:30.962Z,89.93
2023-04-17T02:46:33.979Z,89.99
2023-04-17T02:48:09.161Z,90.10
2023-04-17T02:49:12.238Z,90.20
2023-04-17T02:50:15.224Z,90.14
2023-04-17T02:51:49.815Z,90.17
2023-04-17T02:52:52.672Z,90.15
2023-04-17T02:53:55.367Z,90.28
2023-04-17T02:55:29.957Z,90.27
2023-04-17T02:56:32.914Z,90.29
2023-04-17T02:57:36.067Z,90.28
2023-04-17T02:59:11.047Z,90.32
2023-04-17T03:00:17.660Z,90.46
2023-04-17T03:01:20.715Z,90.37
2023-04-17T03:02:24.365Z,90.54
2023-04-17T03:04:00.857Z,90.54
2023-04-17T03:05:04.451Z,90.85
2023-04-17T03:06:07.208Z,90.88
2023-04-17T03:07:41.974Z,90.80
2023-04-17T03:08:44.861Z,90.82
2023-04-17T03:09:47.890Z,90.93
2023-04-17T03:11:22.470Z,90.81
2023-04-17T03:12:25.340Z,90.94
2023-04-17T03:13:28.308Z,90.92
2023-04-17T03:15:03.276Z,90.94
2023-04-17T03:16:06.673Z,90.87
2023-04-17T03:17:10.064Z,90.92
2023-04-17T03:18:45.070Z,90.93
2023-04-17T03:19:47.949Z,90.95
2023-04-17T03:20:50.863Z,91.02
2023-04-17T03:22:25.416Z,90.91
2023-04-17T03:23:28.318Z,90.97
2023-04-17T03:24:31.056Z,90.98
2023-04-17T03:26:05.599Z,90.98
2023-04-17T03:27:08.365Z,91.09
2023-04-17T03:28:11.277Z,91.17
2023-04-17T03:29:46.130Z,91.36
2023-04-17T03:30:48.936Z,91.33
2023-04-17T03:31:52.233Z,91.31
2023-04-17T03:33:27.498Z,91.41
2023-04-17T03:34:30.383Z,91.41
2023-04-17T03:35:33.270Z,91.41
2023-04-17T03:37:07.980Z,91.39
2023-04-17T03:38:10.653Z,91.52
2023-04-17T03:39:13.906Z,91.48
2023-04-17T03:40:48.694Z,91.47
2023-04-17T03:41:51.509Z,91.58
2023-04-17T03:42:54.410Z,91.51
2023-04-17T03:44:29.064Z,91.61
2023-04-17T03:45:31.868Z,91.61
2023-04-17T03:46:35.081Z,91.72
2023-04-17T03:48:09.910Z,91.74
2023-04-17T03:49:13.102Z,91.82
2023-04-17T03:50:16.048Z,91.81
2023-04-17T03:51:50.747Z,91.91
2023-04-17T03:52:53.721Z,91.86
2023-04-17T03:53:56.640Z,91.97
2023-04-17T03:55:31.387Z,92.05
2023-04-17T03:56:34.240Z,92.02
2023-04-17T03:57:37.003Z,92.00
2023-04-17T03:59:11.633Z,91.90
2023-04-17T04:00:18.094Z,92.07
2023-04-17T04:01:20.806Z,92.11
2023-04-17T04:02:26.871Z,92.08
2023-04-17T04:04:03.562Z,92.13
2023-04-17T04:05:48.490Z,92.18
2023-04-17T04:06:51.472Z,92.18
2023-04-17T04:07:54.477Z,92.25
2023-04-17T04:09:29.184Z,92.18
2023-04-17T04:10:32.281Z,92.18
2023-04-17T04:11:35.077Z,92.17
2023-04-17T04:13:09.952Z,92.17
2023-04-17T04:14:12.646Z,92.09
2023-04-17T04:15:15.404Z,92.08
2023-04-17T04:16:50.011Z,92.05
2023-04-17T04:17:52.917Z,92.04
2023-04-17T04:18:55.911Z,92.01
2023-04-17T04:20:31.162Z,92.07
2023-04-17T04:21:33.960Z,92.15
2023-04-17T04:22:36.872Z,92.16
2023-04-17T04:24:11.476Z,92.24
2023-04-17T04:25:14.913Z,92.24
2023-04-17T04:26:17.706Z,92.31
2023-04-17T04:27:52.313Z,92.35
2023-04-17T04:28:55.433Z,92.36
2023-04-17T04:30:00.153Z,92.28
2023-04-17T04:31:35.027Z,92.26
2023-04-17T04:32:38.193Z,92.20
2023-04-17T04:33:41.488Z,92.20
2023-04-17T04:35:16.029Z,92.25
2023-04-17T04:36:19.091Z,92.27
2023-04-17T04:37:22.631Z,92.26
2023-04-17T04:38:57.460Z,92.38
2023-04-17T04:40:00.392Z,92.45
2023-04-17T04:41:03.270Z,92.43
2023-04-17T04:42:37.956Z,92.43
2023-04-17T04:43:40.808Z,92.41
2023-04-17T04:44:43.683Z,92.37
2023-04-17T04:46:18.161Z,92.38
2023-04-17T04:47:21.237Z,92.38
2023-04-17T04:48:24.183Z,92.41
2023-04-17T04:50:00.881Z,92.34
2023-04-17T04:51:03.675Z,92.54
2023-04-17T04:52:06.634Z,92.45
2023-04-17T04:53:41.351Z,92.45
2023-04-17T04:54:44.263Z,92.43
2023-04-17T04:55:47.195Z,92.46
2023-04-17T04:57:22.020Z,92.42
2023-04-17T04:58:25.023Z,92.39
2023-04-17T04:59:27.870Z,92.41
2023-04-17T05:01:21.031Z,92.36
2023-04-17T05:02:24.939Z,92.44
2023-04-17T05:04:01.099Z,92.47
2023-04-17T05:05:04.937Z,92.46
2023-04-17T05:06:08.021Z,92.50
2023-04-17T05:07:42.618Z,92.46
2023-04-17T05:08:45.558Z,92.40
2023-04-17T05:09:48.412Z,92.35
2023-04-17T05:11:23.063Z,92.36
2023-04-17T05:12:26.071Z,92.35
2023-04-17T05:13:29.005Z,92.34
2023-04-17T05:15:03.729Z,92.24
2023-04-17T05:16:07.765Z,92.25
2023-04-17T05:17:11.038Z,92.23
2023-04-17T05:18:46.053Z,92.22
2023-04-17T05:19:48.874Z,92.19
2023-04-17T05:20:51.618Z,92.19
2023-04-17T05:22:26.143Z,92.18
2023-04-17T05:23:29.049Z,92.17
2023-04-17T05:24:31.845Z,92.18
2023-04-17T05:26:06.478Z,92.08
2023-04-17T05:27:09.428Z,92.13
2023-04-17T05:28:14.234Z,92.09
2023-04-17T05:29:50.679Z,92.02
2023-04-17T05:30:53.613Z,91.99
2023-04-17T05:31:56.927Z,91.95
2023-04-17T05:33:32.292Z,91.81
2023-04-17T05:34:35.156Z,91.81
2023-04-17T05:35:38.003Z,91.76
2023-04-17T05:37:14.157Z,91.72
2023-04-17T05:38:16.945Z,91.70
2023-04-17T05:39:19.652Z,91.79
2023-04-17T05:40:54.192Z,91.84
2023-04-17T05:41:57.340Z,91.83
2023-04-17T05:43:00.222Z,91.69
2023-04-17T05:44:34.945Z,91.65
2023-04-17T05:45:38.134Z,91.70
2023-04-17T05:46:41.388Z,91.63
2023-04-17T05:48:16.016Z,91.53
2023-04-17T05:49:19.127Z,91.52
2023-04-17T05:50:22.219Z,91.49
2023-04-17T05:51:56.904Z,91.48
2023-04-17T05:52:59.626Z,91.42
2023-04-17T05:54:02.396Z,91.40
2023-04-17T05:55:36.874Z,91.44
2023-04-17T05:56:39.648Z,91.39
2023-04-17T05:57:42.527Z,91.44
2023-04-17T05:59:28.808Z,91.39
2023-04-17T06:01:19.513Z,91.35
2023-04-17T06:02:22.775Z,91.27
2023-04-17T06:04:01.503Z,91.23
2023-04-17T06:05:08.395Z,91.19
2023-04-17T06:06:12.550Z,91.23
2023-04-17T06:07:48.129Z,91.34
2023-04-17T06:08:50.823Z,91.30
2023-04-17T06:09:53.781Z,91.27
2023-04-17T06:11:28.448Z,91.25
2023-04-17T06:12:31.275Z,91.12
2023-04-17T06:13:34.081Z,91.08
2023-04-17T06:15:09.061Z,91.01
2023-04-17T06:16:12.189Z,90.93
2023-04-17T06:17:15.685Z,90.75
2023-04-17T06:18:50.771Z,90.74
2023-04-17T06:19:54.145Z,90.74
2023-04-17T06:20:57.058Z,90.77
2023-04-17T06:22:31.812Z,90.80
2023-04-17T06:23:34.819Z,90.72
2023-04-17T06:24:37.726Z,90.71
2023-04-17T06:26:12.310Z,90.65
2023-04-17T06:27:15.519Z,90.64
2023-04-17T06:28:21.171Z,90.42
2023-04-17T06:29:55.735Z,90.44
2023-04-17T06:30:58.656Z,90.43
2023-04-17T06:32:02.083Z,90.40
2023-04-17T06:33:36.849Z,90.43
2023-04-17T06:34:52.557Z,90.34
2023-04-17T06:36:01.942Z,90.22
2023-04-17T06:37:36.736Z,89.84
2023-04-17T06:38:39.704Z,89.91
2023-04-17T06:39:42.541Z,89.93
2023-04-17T06:41:17.303Z,89.78
2023-04-17T06:42:20.124Z,89.78
2023-04-17T06:43:22.961Z,89.70
2023-04-17T06:44:57.438Z,89.61
2023-04-17T06:46:00.274Z,89.58
2023-04-17T06:47:03.391Z,89.45
2023-04-17T06:48:38.130Z,89.33
2023-04-17T06:49:40.935Z,89.25
2023-04-17T06:50:43.897Z,89.25
2023-04-17T06:52:18.632Z,89.31
2023-04-17T06:53:21.518Z,89.30
2023-04-17T06:54:24.437Z,89.24
2023-04-17T06:55:59.414Z,89.13
2023-04-17T06:57:02.344Z,89.14
2023-04-17T06:58:05.241Z,89.07
2023-04-17T06:59:39.962Z,89.09
2023-04-17T07:01:20.922Z,89.02
2023-04-17T07:02:24.605Z,89.00
2023-04-17T07:04:00.837Z,88.92
2023-04-17T07:05:04.686Z,88.69
2023-04-17T07:06:07.522Z,88.81
2023-04-17T07:07:42.180Z,88.84
2023-04-17T07:08:45.080Z,88.76
2023-04-17T07:09:47.902Z,88.79
2023-04-17T07:11:22.721Z,88.74
2023-04-17T07:12:25.634Z,88.79
2023-04-17T07:13:28.584Z,88.76
2023-04-17T07:15:03.318Z,88.75
2023-04-17T07:16:06.745Z,88.72
2023-04-17T07:17:09.982Z,88.51
2023-04-17T07:18:44.712Z,88.63
2023-04-17T07:19:47.501Z,88.63
2023-04-17T07:20:50.337Z,88.62
2023-04-17T07:22:25.988Z,88.68
2023-04-17T07:23:30.193Z,88.59
2023-04-17T07:24:33.008Z,88.51
2023-04-17T07:26:07.885Z,88.55
2023-04-17T07:27:10.780Z,88.43
2023-04-17T07:28:13.719Z,88.41
2023-04-17T07:29:48.439Z,88.07
2023-04-17T07:30:51.314Z,88.01
2023-04-17T07:31:54.749Z,87.96
2023-04-17T07:33:29.719Z,87.71
2023-04-17T07:34:34.238Z,87.81
2023-04-17T07:35:37.301Z,87.76
2023-04-17T07:37:11.857Z,87.86
2023-04-17T07:38:14.780Z,87.67
2023-04-17T07:39:21.328Z,87.67
2023-04-17T07:40:56.273Z,87.67
2023-04-17T07:41:59.172Z,87.73
2023-04-17T07:43:02.136Z,87.77
2023-04-17T07:44:36.894Z,87.66
2023-04-17T07:45:41.845Z,87.58
2023-04-17T07:46:45.005Z,87.41
2023-04-17T07:48:20.380Z,87.38
2023-04-17T07:49:23.903Z,87.24
2023-04-17T07:50:26.997Z,87.19
2023-04-17T07:52:01.603Z,87.15
2023-04-17T07:53:04.461Z,87.15
2023-04-17T07:54:07.240Z,87.13
2023-04-17T07:55:42.009Z,86.57
2023-04-17T07:56:44.841Z,86.39
2023-04-17T07:57:47.712Z,86.52
2023-04-17T07:59:22.399Z,86.43
2023-04-17T08:00:17.477Z,86.58
2023-04-17T08:01:20.658Z,86.48
2023-04-17T08:02:26.399Z,86.43
2023-04-17T08:04:04.027Z,86.58
2023-04-17T08:05:08.909Z,86.34
2023-04-17T08:06:12.732Z,86.15
2023-04-17T08:07:47.532Z,85.73
2023-04-17T08:08:50.346Z,85.61
2023-04-17T08:09:53.931Z,85.43
2023-04-17T08:11:28.521Z,84.93
2023-04-17T08:12:49.455Z,84.72
2023-04-17T08:13:52.215Z,84.61
2023-04-17T08:15:26.779Z,84.50
2023-04-17T08:16:31.354Z,84.44
2023-04-17T08:17:34.711Z,84.39
2023-04-17T08:19:09.764Z,84.33
2023-04-17T08:20:12.681Z,83.73
2023-04-17T08:21:15.693Z,83.71
2023-04-17T08:22:50.446Z,83.45
2023-04-17T08:23:53.529Z,83.23
2023-04-17T08:25:00.164Z,83.03
2023-04-17T08:26:34.909Z,83.18
2023-04-17T08:27:37.917Z,82.87
2023-04-17T08:28:40.788Z,82.52
2023-04-17T08:30:19.488Z,82.88
2023-04-17T08:31:22.831Z,82.69
2023-04-17T08:32:25.945Z,82.00
2023-04-17T08:34:19.056Z,82.18
2023-04-17T08:35:22.105Z,81.75
2023-04-17T08:36:25.124Z,81.75
2023-04-17T08:37:59.783Z,81.37
2023-04-17T08:39:02.614Z,80.66
2023-04-17T08:40:06.162Z,80.37
2023-04-17T08:41:41.338Z,80.31
2023-04-17T08:42:44.137Z,80.19
2023-04-17T08:43:46.989Z,80.33
2023-04-17T08:45:21.645Z,80.11
2023-04-17T08:46:24.832Z,80.01
2023-04-17T08:47:28.192Z,79.71
2023-04-17T08:49:03.268Z,79.92
2023-04-17T08:50:06.409Z,79.70
2023-04-17T08:51:09.658Z,79.71
2023-04-17T08:52:44.552Z,78.91
2023-04-17T08:53:47.333Z,78.89
2023-04-17T08:54:51.412Z,78.94
2023-04-17T08:56:27.303Z,78.69
2023-04-17T08:57:30.344Z,78.46
2023-04-17T08:58:34.417Z,78.45
2023-04-17T09:00:17.492Z,78.58
2023-04-17T09:01:20.609Z,78.50
2023-04-17T09:02:26.126Z,78.78
2023-04-17T09:04:03.966Z,78.65
2023-04-17T09:05:08.427Z,78.62
2023-04-17T09:06:11.548Z,78.53
2023-04-17T09:07:46.469Z,78.12
2023-04-17T09:08:49.615Z,77.86
2023-04-17T09:09:52.810Z,77.84
2023-04-17T09:11:27.678Z,77.70
2023-04-17T09:12:30.687Z,77.88
2023-04-17T09:13:33.598Z,77.70
2023-04-17T09:15:08.449Z,77.69
2023-04-17T09:16:11.457Z,77.49
2023-04-17T09:17:14.809Z,77.36
2023-04-17T09:18:49.563Z,76.85
2023-04-17T09:19:52.710Z,76.53
2023-04-17T09:20:55.813Z,76.46
2023-04-17T09:22:30.519Z,76.79
2023-04-17T09:23:33.331Z,76.97
2023-04-17T09:24:36.363Z,77.17
2023-04-17T09:26:11.096Z,76.99
2023-04-17T09:27:14.152Z,76.69
2023-04-17T09:28:17.156Z,76.54
2023-04-17T09:29:51.972Z,76.63
2023-04-17T09:30:54.939Z,76.66
2023-04-17T09:31:58.829Z,76.59
2023-04-17T09:33:33.648Z,76.62
2023-04-17T09:34:36.609Z,76.76
2023-04-17T09:35:40.191Z,76.32
2023-04-17T09:37:15.288Z,76.87
2023-04-17T09:38:18.162Z,75.93
2023-04-17T09:39:21.182Z,75.84
2023-04-17T09:40:56.045Z,75.63
2023-04-17T09:42:00.050Z,75.56
2023-04-17T09:43:04.610Z,75.06
2023-04-17T09:44:40.142Z,74.24
2023-04-17T09:45:43.137Z,74.08
2023-04-17T09:46:46.412Z,73.72
2023-04-17T09:48:21.706Z,73.75
2023-04-17T09:49:24.628Z,73.97
2023-04-17T09:50:27.598Z,74.17
2023-04-17T09:52:02.785Z,74.23
2023-04-17T09:53:05.658Z,74.43
2023-04-17T09:54:08.405Z,74.20
2023-04-17T09:55:44.053Z,74.54
2023-04-17T09:56:47.342Z,73.93
2023-04-17T09:57:50.397Z,73.93
2023-04-17T09:59:25.615Z,73.93
2023-04-17T10:01:20.223Z,74.15
2023-04-17T10:02:24.840Z,74.16
2023-04-17T10:04:01.447Z,74.22
2023-04-17T10:05:06.360Z,74.17
2023-04-17T10:06:09.359Z,73.47
2023-04-17T10:07:43.847Z,73.30
2023-04-17T10:08:46.693Z,73.35
2023-04-17T10:09:49.470Z,72.40
2023-04-17T10:11:24.022Z,72.77
2023-04-17T10:12:26.765Z,72.87
2023-04-17T10:13:31.945Z,72.88
2023-04-17T10:15:06.510Z,73.33
2023-04-17T10:16:09.680Z,73.58
2023-04-17T10:17:13.009Z,73.61
2023-04-17T10:18:48.002Z,73.55
2023-04-17T10:19:50.929Z,73.13
2023-04-17T10:20:54.312Z,71.50
2023-04-17T10:22:30.102Z,71.69
2023-04-17T10:23:33.652Z,72.03
2023-04-17T10:24:36.462Z,71.76
2023-04-17T10:26:11.021Z,71.39
2023-04-17T10:27:13.948Z,71.43
2023-04-17T10:28:16.710Z,71.48
2023-04-17T10:29:51.270Z,70.55
2023-04-17T10:30:55.082Z,70.55
2023-04-17T10:31:58.838Z,70.55
2023-04-17T10:33:34.261Z,71.02
2023-04-17T10:34:37.295Z,70.53
2023-04-17T10:35:41.675Z,70.61
2023-04-17T10:37:16.412Z,69.72
2023-04-17T10:38:19.463Z,69.49
2023-04-17T10:39:22.572Z,69.49
2023-04-17T10:40:58.456Z,69.21
2023-04-17T10:42:03.230Z,69.04
2023-04-17T10:43:06.034Z,69.38
2023-04-17T10:44:41.034Z,68.81
2023-04-17T10:45:43.882Z,68.03
2023-04-17T10:46:47.135Z,67.98
2023-04-17T10:48:21.836Z,67.73
2023-04-17T10:49:25.556Z,67.83
2023-04-17T10:50:28.390Z,67.40
2023-04-17T10:52:03.197Z,67.16
2023-04-17T10:53:06.070Z,67.16
2023-04-17T10:54:10.847Z,67.16
2023-04-17T10:55:45.517Z,66.94
2023-04-17T10:56:48.482Z,66.94
2023-04-17T10:57:51.554Z,67.21
2023-04-17T10:59:25.972Z,66.98
2023-04-17T11:01:21.167Z,66.95
2023-04-17T11:02:26.638Z,67.08
2023-04-17T11:04:02.260Z,67.46
2023-04-17T11:05:05.860Z,66.95
2023-04-17T11:06:09.039Z,66.95
2023-04-17T11:07:44.711Z,67.23
2023-04-17T11:08:47.711Z,66.79
2023-04-17T11:09:53.331Z,66.79
2023-04-17T11:11:48.942Z,65.06
2023-04-17T11:12:51.873Z,64.91
2023-04-17T11:13:54.849Z,64.98
2023-04-17T11:15:32.571Z,65.16
2023-04-17T11:16:35.654Z,65.92
2023-04-17T11:17:38.999Z,65.97
2023-04-17T11:19:14.475Z,65.33
2023-04-17T11:20:17.726Z,65.42
2023-04-17T11:21:20.464Z,64.74
2023-04-17T11:22:55.182Z,64.34
2023-04-17T11:23:58.094Z,63.90
2023-04-17T11:25:00.939Z,64.04
2023-04-17T11:26:35.791Z,64.04
2023-04-17T11:27:38.738Z,64.04
2023-04-17T11:28:41.607Z,64.04
2023-04-17T11:30:16.575Z,64.95
2023-04-17T11:31:21.727Z,64.35
2023-04-17T11:32:26.201Z,64.70
2023-04-17T11:34:01.358Z,62.93
2023-04-17T11:35:04.170Z,63.83
2023-04-17T11:36:07.147Z,64.68
2023-04-17T11:37:42.266Z,63.65
2023-04-17T11:38:45.232Z,61.81
2023-04-17T11:39:48.319Z,57.86
2023-04-17T11:41:23.146Z,57.86
2023-04-17T11:42:26.129Z,57.86
2023-04-17T11:43:28.976Z,57.89
2023-04-17T11:45:04.657Z,57.89
2023-04-17T11:46:07.853Z,57.56
2023-04-17T11:47:11.067Z,57.51
2023-04-17T11:48:45.966Z,56.81
2023-04-17T11:49:48.759Z,56.88
2023-04-17T11:50:51.809Z,56.88
2023-04-17T11:52:26.433Z,55.23
2023-04-17T11:53:29.339Z,53.59
2023-04-17T11:54:32.206Z,53.59
2023-04-17T11:56:06.953Z,52.93
2023-04-17T11:57:10.051Z,54.17
2023-04-17T11:58:12.989Z,54.37
2023-04-17T11:59:48.472Z,54.37
2023-04-17T12:00:17.930Z,54.37
2023-04-17T12:01:20.761Z,52.83
2023-04-17T12:02:23.984Z,53.90
2023-04-17T12:04:00.836Z,53.90
2023-04-17T12:05:06.811Z,53.90
2023-04-17T12:06:11.167Z,55.21
2023-04-17T12:07:45.775Z,53.80
2023-04-17T12:08:48.580Z,53.11
2023-04-17T12:09:52.183Z,54.52
2023-04-17T12:11:27.082Z,53.46
2023-04-17T12:12:29.998Z,53.55
2023-04-17T12:13:32.941Z,54.62
2023-04-17T12:15:07.709Z,54.00
2023-04-17T12:16:10.697Z,53.24
2023-04-17T12:17:14.349Z,53.24
2023-04-17T12:18:49.381Z,55.48
2023-04-17T12:19:52.313Z,54.86
2023-04-17T12:20:55.427Z,54.16
2023-04-17T12:22:30.136Z,53.68
2023-04-17T12:23:32.847Z,53.68
2023-04-17T12:24:35.764Z,53.68
2023-04-17T12:26:10.305Z,54.21
2023-04-17T12:27:13.062Z,54.21
2023-04-17T12:28:15.972Z,53.52
2023-04-17T12:29:50.957Z,53.74
2023-04-17T12:30:53.840Z,52.14
2023-04-17T12:31:57.253Z,52.33
2023-04-17T12:33:32.556Z,52.78
2023-04-17T12:34:35.529Z,51.37
2023-04-17T12:35:38.504Z,51.33
2023-04-17T12:37:13.516Z,52.30
2023-04-17T12:38:16.311Z,51.67
2023-04-17T12:39:19.222Z,52.34
2023-04-17T12:40:53.723Z,52.74
2023-04-17T12:41:56.745Z,53.43
2023-04-17T12:42:59.555Z,52.51
2023-04-17T12:44:34.138Z,51.89
2023-04-17T12:45:37.373Z,52.07
2023-04-17T12:46:40.531Z,52.89
2023-04-17T12:48:15.222Z,51.44
2023-04-17T12:49:19.505Z,51.29
2023-04-17T12:50:22.767Z,50.36
2023-04-17T12:52:00.324Z,49.46
2023-04-17T12:53:04.733Z,48.86
2023-04-17T12:54:07.947Z,48.97
2023-04-17T12:55:43.001Z,46.11
2023-04-17T12:56:46.445Z,47.39
2023-04-17T12:57:49.371Z,48.44
2023-04-17T12:59:24.166Z,47.78
2023-04-17T13:01:20.668Z,48.88
2023-04-17T13:02:24.683Z,49.12
2023-04-17T13:04:01.575Z,49.04
2023-04-17T13:05:07.551Z,48.19
2023-04-17T13:06:10.576Z,48.50
2023-04-17T13:07:45.746Z,48.23
2023-04-17T13:08:48.765Z,48.15
2023-04-17T13:09:52.402Z,47.36
2023-04-17T13:11:27.535Z,48.51
2023-04-17T13:12:30.368Z,48.55
2023-04-17T13:13:33.166Z,47.63
2023-04-17T13:15:08.177Z,47.86
2023-04-17T13:17:17.327Z,47.38
2023-04-17T13:18:20.664Z,46.93
2023-04-17T13:19:55.536Z,45.86
2023-04-17T13:20:58.567Z,46.61
2023-04-17T13:22:02.002Z,46.15
2023-04-17T13:23:39.301Z,46.73
2023-04-17T13:24:42.374Z,45.83
2023-04-17T13:25:45.426Z,45.66
2023-04-17T13:27:20.098Z,47.29
2023-04-17T13:28:23.047Z,46.41
2023-04-17T13:29:26.320Z,45.58
2023-04-17T13:31:01.138Z,46.56
2023-04-17T13:32:04.402Z,47.57
2023-04-17T13:33:07.509Z,47.16
2023-04-17T13:34:42.258Z,46.82
2023-04-17T13:35:45.200Z,46.29
2023-04-17T13:36:48.092Z,45.37
2023-04-17T13:38:22.745Z,44.96
2023-04-17T13:39:25.802Z,44.68
2023-04-17T13:40:28.966Z,44.65
2023-04-17T13:42:03.782Z,44.19
2023-04-17T13:43:06.760Z,44.24
2023-04-17T13:44:09.669Z,46.81
2023-04-17T13:45:44.738Z,46.85
2023-04-17T13:46:47.935Z,47.72
2023-04-17T13:47:51.008Z,48.29
2023-04-17T13:49:26.340Z,46.60
2023-04-17T13:50:29.251Z,46.34
2023-04-17T13:51:32.226Z,47.13
2023-04-17T13:53:08.464Z,46.80
2023-04-17T13:54:12.264Z,46.29
2023-04-17T13:55:15.470Z,46.32
2023-04-17T13:56:50.287Z,43.01
2023-04-17T13:57:53.318Z,43.06
2023-04-17T13:58:56.331Z,43.28
2023-04-17T14:00:18.351Z,43.78
2023-04-17T14:01:21.366Z,44.31
2023-04-17T14:02:25.532Z,43.53
2023-04-17T14:04:02.867Z,44.18
2023-04-17T14:05:07.903Z,44.76
2023-04-17T14:06:10.845Z,45.42
2023-04-17T14:07:45.598Z,47.05
2023-04-17T14:08:50.101Z,47.07
2023-04-17T14:09:53.528Z,46.24
2023-04-17T14:11:28.210Z,44.71
2023-04-17T14:12:31.199Z,45.30
2023-04-17T14:13:34.152Z,45.72
2023-04-17T14:15:09.425Z,46.96
2023-04-17T14:16:12.493Z,47.07
2023-04-17T14:17:15.870Z,47.35
2023-04-17T14:18:51.032Z,48.34
2023-04-17T14:20:04.561Z,48.95
2023-04-17T14:21:07.627Z,48.52
2023-04-17T14:22:42.405Z,49.75
2023-04-17T14:23:45.269Z,49.95
2023-04-17T14:24:48.007Z,50.39
2023-04-17T14:26:22.641Z,52.04
2023-04-17T14:27:25.613Z,52.44
2023-04-17T14:28:28.477Z,52.43
2023-04-17T14:30:06.920Z,52.71
2023-04-17T14:31:10.171Z,52.92
2023-04-17T14:32:13.635Z,52.03
2023-04-17T14:33:48.653Z,53.04
2023-04-17T14:34:51.803Z,53.54
2023-04-17T14:35:54.639Z,52.36
2023-04-17T14:37:29.666Z,52.95
2023-04-17T14:38:32.635Z,52.36
2023-04-17T14:39:37.385Z,50.73
2023-04-17T14:41:12.151Z,51.14
2023-04-17T14:42:15.483Z,50.80
2023-04-17T14:43:35.086Z,50.03
2023-04-17T14:45:09.940Z,48.93
2023-04-17T14:46:12.956Z,49.29
2023-04-17T14:47:16.684Z,48.30
2023-04-17T14:49:01.748Z,48.27
2023-04-17T14:50:04.973Z,47.31
2023-04-17T14:51:07.961Z,46.37
2023-04-17T14:52:43.476Z,45.52
2023-04-17T14:53:46.315Z,45.85
2023-04-17T14:54:50.441Z,44.84
2023-04-17T14:56:24.936Z,45.06
2023-04-17T14:57:27.927Z,45.72
2023-04-17T14:58:31.048Z,45.64
2023-04-17T15:00:17.809Z,46.09
2023-04-17T15:01:20.885Z,46.59
2023-04-17T15:02:24.199Z,46.74
2023-04-17T15:04:01.053Z,47.20
2023-04-17T15:05:06.004Z,47.11
2023-04-17T15:06:09.166Z,47.47
2023-04-17T15:07:44.202Z,47.70
2023-04-17T15:08:47.267Z,47.49
2023-04-17T15:09:50.167Z,47.48
2023-04-17T15:11:32.059Z,47.08
2023-04-17T15:12:34.961Z,46.78
2023-04-17T15:13:37.931Z,47.45
2023-04-17T15:15:12.550Z,46.81
2023-04-17T15:16:15.721Z,47.30
2023-04-17T15:17:19.163Z,47.92
2023-04-17T15:18:53.935Z,48.49
2023-04-17T15:19:57.159Z,47.89
2023-04-17T15:21:00.677Z,49.15
2023-04-17T15:22:35.463Z,49.29
2023-04-17T15:23:38.425Z,49.34
2023-04-17T15:24:41.456Z,49.51
2023-04-17T15:26:16.170Z,49.75
2023-04-17T15:27:19.097Z,49.62
2023-04-17T15:28:22.027Z,50.58
2023-04-17T15:29:56.659Z,50.72
2023-04-17T15:30:59.465Z,51.09
2023-04-17T15:32:02.599Z,51.56
2023-04-17T15:33:38.012Z,51.39
2023-04-17T15:34:40.955Z,52.04
2023-04-17T15:35:43.894Z,52.51
2023-04-17T15:37:18.764Z,52.06
2023-04-17T15:38:21.661Z,52.23
2023-04-17T15:39:24.565Z,52.62
2023-04-17T15:40:59.455Z,52.49
2023-04-17T15:42:02.920Z,51.65
2023-04-17T15:43:05.923Z,51.01
2023-04-17T15:44:40.641Z,49.27
2023-04-17T15:45:43.699Z,49.17
2023-04-17T15:46:46.905Z,49.10
2023-04-17T15:48:21.520Z,49.07
2023-04-17T15:49:26.398Z,48.76
2023-04-17T15:50:29.504Z,49.11
2023-04-17T15:52:04.326Z,48.89
2023-04-17T15:53:07.159Z,48.63
2023-04-17T15:54:10.741Z,50.28
2023-04-17T15:55:45.498Z,48.12
2023-04-17T15:56:48.349Z,48.36